Time;durP1;ratioP1;P1;durP2;ratioP2;P2;SDS_P1;SDS_P2;PMS_P1;PMS_P2;Temp;Humidity;BMP_temperature;BMP_pressure;BME280_temperature;BME280_humidity;BME280_pressure;Samples;Min_cycle;Max_cycle;Signal;HPM_P1;HPM_P2
2022/06/20 00:00:58;;;;;;;11.13;4.32;;;;;;;26.03;50.48;99764.31;5033967;28;20217;-64
2022/06/20 00:03:30;;;;;;;15.93;4.55;;;;;;;26.00;50.53;99762.94;5033845;28;20232;-63
2022/06/20 00:05:58;;;;;;;11.02;4.00;;;;;;;25.97;50.52;99758.03;5033787;28;20208;-63
2022/06/20 00:08:26;;;;;;;17.17;4.90;;;;;;;25.94;50.67;99757.78;5034222;28;20228;-64
2022/06/20 00:10:55;;;;;;;12.95;5.25;;;;;;;25.91;50.70;99750.13;5033961;28;20205;-64
2022/06/20 00:13:27;;;;;;;13.85;4.28;;;;;;;25.86;51.05;99750.91;5027637;28;20854;-63
2022/06/20 00:15:56;;;;;;;9.18;4.32;;;;;;;25.85;50.99;99749.31;5033419;28;20244;-63
2022/06/20 00:18:24;;;;;;;13.60;5.22;;;;;;;25.80;51.11;99744.66;5034152;28;20728;-63
2022/06/20 00:20:52;;;;;;;14.23;5.05;;;;;;;25.76;51.34;99734.63;5034148;28;20311;-63
2022/06/20 00:23:20;;;;;;;12.52;5.05;;;;;;;25.75;51.26;99735.69;5029695;28;20619;-63
2022/06/20 00:25:48;;;;;;;9.57;4.88;;;;;;;25.73;51.43;99724.28;5033651;28;20209;-63
2022/06/20 00:28:17;;;;;;;9.38;4.47;;;;;;;25.73;51.39;99724.28;5033678;28;20209;-62
2022/06/20 00:30:46;;;;;;;13.70;5.20;;;;;;;25.68;51.60;99711.47;5033299;28;20235;-63
2022/06/20 00:33:14;;;;;;;13.63;4.57;;;;;;;25.67;51.42;99714.47;5032794;28;20219;-63
2022/06/20 00:35:43;;;;;;;15.00;4.75;;;;;;;25.64;51.90;99710.38;5033636;28;20650;-64
2022/06/20 00:38:17;;;;;;;10.10;4.60;;;;;;;25.62;51.71;99712.53;5033947;28;20296;-63
2022/06/20 00:40:48;;;;;;;11.90;4.47;;;;;;;25.60;51.73;99714.69;5033602;28;20582;-63
2022/06/20 00:43:22;;;;;;;11.70;4.47;;;;;;;25.56;51.75;99713.59;5032326;28;20287;-63
2022/06/20 00:45:54;;;;;;;8.70;4.40;;;;;;;25.55;51.60;99705.69;5039716;28;20673;-62
2022/06/20 00:48:27;;;;;;;12.30;4.13;;;;;;;25.56;51.78;99708.16;5033397;28;20303;-62
2022/06/20 00:51:01;;;;;;;11.40;4.45;;;;;;;25.54;51.64;99712.19;5033237;28;20296;-64
2022/06/20 00:53:35;;;;;;;9.82;4.07;;;;;;;25.51;51.53;99721.69;5030928;28;20270;-63
2022/06/20 00:56:13;;;;;;;13.68;4.43;;;;;;;25.51;51.38;99735.25;5032717;28;20635;-63
2022/06/20 00:58:47;;;;;;;11.02;4.28;;;;;;;25.48;51.38;99733.09;5032798;28;20236;-64
2022/06/20 01:01:18;;;;;;;15.57;4.18;;;;;;;25.46;51.29;99740.66;5033133;28;20247;-63
2022/06/20 01:03:52;;;;;;;11.35;4.20;;;;;;;25.44;51.42;99742.81;5032428;28;20220;-63
2022/06/20 01:06:24;;;;;;;16.27;4.80;;;;;;;25.39;51.49;99737.38;5032977;28;20712;-62
2022/06/20 01:08:57;;;;;;;14.18;4.47;;;;;;;25.37;51.46;99736.81;5032675;28;20282;-62
2022/06/20 01:11:29;;;;;;;14.38;4.72;;;;;;;25.35;51.51;99737.06;5033045;28;20205;-63
2022/06/20 01:13:58;;;;;;;10.88;4.45;;;;;;;25.31;51.73;99748.72;5032433;28;20212;-63
2022/06/20 01:16:29;;;;;;;11.43;4.68;;;;;;;25.29;51.76;99769.88;5032444;28;20201;-63
2022/06/20 01:19:01;;;;;;;15.85;4.75;;;;;;;25.27;51.64;99770.13;5032857;28;20216;-63
2022/06/20 01:21:33;;;;;;;9.65;3.80;;;;;;;25.25;51.22;99793.16;5032827;28;20287;-63
2022/06/20 01:24:12;;;;;;;11.38;3.80;;;;;;;25.23;50.78;99798.88;5031923;28;20299;-64
2022/06/20 01:26:47;;;;;;;11.65;4.45;;;;;;;25.22;51.26;99807.28;5032546;28;20215;-64
2022/06/20 01:29:17;;;;;;;12.80;3.72;;;;;;;25.17;51.56;99807.22;5032555;28;20318;-63
2022/06/20 01:31:48;;;;;;;9.95;4.32;;;;;;;25.15;51.43;99812.91;5032720;28;20349;-64
2022/06/20 01:34:18;;;;;;;14.07;4.10;;;;;;;25.14;51.45;99816.72;5031469;28;20295;-62
2022/06/20 01:39:37;;;;;;;13.00;4.35;;;;;;;25.09;51.26;99854.63;5024516;28;20324;-64
2022/06/20 01:42:18;;;;;;;10.57;3.70;;;;;;;25.07;51.02;99911.03;5036621;28;20649;-63
2022/06/20 01:44:50;;;;;;;9.43;4.32;;;;;;;25.02;51.41;99919.94;5032723;28;20243;-63
2022/06/20 01:47:18;;;;;;;14.60;4.57;;;;;;;24.97;51.64;99906.34;5032830;28;20243;-63
2022/06/20 01:49:49;;;;;;;13.40;4.38;;;;;;;24.96;51.64;99912.84;5032273;28;20286;-63
2022/06/20 01:52:24;;;;;;;14.93;4.57;;;;;;;24.89;51.52;99925.72;5030583;28;20573;-64
2022/06/20 01:54:57;;;;;;;15.27;4.68;;;;;;;24.88;51.76;99924.13;5031908;28;20275;-62
2022/06/20 01:57:30;;;;;;;17.92;4.35;;;;;;;24.81;51.33;99923.47;5032508;28;20209;-61
2022/06/20 02:00:02;;;;;;;10.00;3.22;;;;;;;24.71;50.60;99928.81;5032410;28;20205;-63
2022/06/20 02:02:34;;;;;;;16.27;3.97;;;;;;;24.71;50.55;99931.50;5031336;28;20737;-62
2022/06/20 02:05:04;;;;;;;15.18;3.30;;;;;;;24.65;50.35;99941.47;5031949;28;20216;-63
2022/06/20 02:07:32;;;;;;;9.38;2.97;;;;;;;24.59;50.23;99947.06;5031925;28;20295;-63
2022/06/20 02:10:01;;;;;;;15.13;3.58;;;;;;;24.58;50.18;99945.44;5031808;28;20228;-64
2022/06/20 02:12:33;;;;;;;11.30;2.70;;;;;;;24.56;49.98;99948.38;5031614;28;20213;-63
2022/06/20 02:15:04;;;;;;;16.15;3.53;;;;;;;24.51;50.06;99939.38;5028559;28;20300;-62
2022/06/20 02:17:35;;;;;;;19.23;3.67;;;;;;;24.43;49.89;99950.66;5031007;28;20204;-62
2022/06/20 02:20:08;;;;;;;12.40;2.70;;;;;;;24.29;50.16;99942.88;5031759;28;20208;-62
2022/06/20 02:22:36;;;;;;;13.95;3.10;;;;;;;24.25;49.91;99933.66;5031289;28;20212;-62
2022/06/20 02:25:10;;;;;;;12.45;3.42;;;;;;;24.19;49.94;99937.31;5031343;28;20295;-62
2022/06/20 02:27:41;;;;;;;12.98;3.78;;;;;;;24.12;50.06;99925.84;5031761;28;20267;-62
2022/06/20 02:33:26;;;;;;;20.67;3.55;;;;;;;24.00;50.23;99935.97;4969637;28;20277;-61
2022/06/20 02:35:55;;;;;;;13.05;2.72;;;;;;;23.97;50.39;99923.75;5029502;28;20721;-62
2022/06/20 02:38:23;;;;;;;9.18;2.75;;;;;;;23.91;50.86;99922.03;5041864;28;20518;-62
2022/06/20 02:40:55;;;;;;;11.52;3.08;;;;;;;23.92;50.78;99930.97;5031192;28;20205;-63
2022/06/20 02:43:27;;;;;;;11.63;3.28;;;;;;;23.92;50.78;99936.41;5029033;28;20262;-62
2022/06/20 02:45:58;;;;;;;7.75;3.03;;;;;;;23.89;50.98;99920.63;5030360;28;20217;-64
2022/06/20 02:48:29;;;;;;;8.50;2.30;;;;;;;23.88;51.03;99919.00;5031674;28;20204;-63
2022/06/20 02:51:10;;;;;;;10.07;2.90;;;;;;;23.85;51.09;99903.22;5031493;28;20311;-62
2022/06/20 02:53:42;;;;;;;11.23;3.08;;;;;;;23.78;51.29;99898.00;5017361;28;20251;-63
2022/06/20 02:56:15;;;;;;;17.80;3.22;;;;;;;23.76;51.56;99892.00;5030789;28;20221;-62
2022/06/20 02:58:47;;;;;;;9.40;2.90;;;;;;;23.76;51.53;99883.88;5030719;28;20308;-63
2022/06/20 03:01:21;;;;;;;9.23;2.97;;;;;;;23.74;51.63;99888.75;5030466;28;20232;-64
2022/06/20 03:03:54;;;;;;;10.32;2.65;;;;;;;23.82;51.48;99882.09;5030614;28;20208;-64
2022/06/20 03:06:27;;;;;;;8.98;2.85;;;;;;;23.80;51.64;99863.38;5030857;28;20209;-63
2022/06/20 03:08:57;;;;;;;11.23;3.30;;;;;;;23.67;52.01;99863.72;5030805;28;20240;-64
2022/06/20 03:11:28;;;;;;;10.30;3.40;;;;;;;23.58;52.34;99857.09;5030830;28;20239;-63
2022/06/20 03:13:58;;;;;;;10.97;3.00;;;;;;;23.55;52.70;99849.47;5030775;28;20300;-63
2022/06/20 03:16:28;;;;;;;13.88;3.25;;;;;;;23.48;53.01;99844.22;5031544;28;20288;-62
2022/06/20 03:18:59;;;;;;;11.17;3.10;;;;;;;23.50;52.83;99844.78;5031195;28;20209;-62
2022/06/20 03:21:34;;;;;;;13.43;3.30;;;;;;;23.51;52.56;99859.16;5030741;28;20205;-62
2022/06/20 03:24:03;;;;;;;15.93;3.17;;;;;;;23.39;52.78;99848.41;5029668;28;20207;-63
2022/06/20 03:26:31;;;;;;;13.47;3.33;;;;;;;23.39;53.01;99861.94;5030174;28;20211;-63
2022/06/20 03:28:59;;;;;;;9.38;3.05;;;;;;;23.45;53.26;99860.94;5029679;28;20630;-63
2022/06/20 03:31:28;;;;;;;10.87;2.83;;;;;;;23.47;52.67;99866.94;5030272;28;20319;-63
2022/06/20 03:33:56;;;;;;;13.83;3.70;;;;;;;23.49;52.83;99877.50;5026437;28;20235;-63
2022/06/20 03:36:27;;;;;;;14.30;2.85;;;;;;;23.55;52.76;99877.38;5030627;28;20646;-63
2022/06/20 03:38:56;;;;;;;12.37;3.60;;;;;;;23.60;52.63;99880.13;5023827;28;20208;-63
2022/06/20 03:41:27;;;;;;;14.52;3.50;;;;;;;23.64;52.56;99880.47;5030122;28;20213;-62
2022/06/20 03:44:01;;;;;;;10.43;3.15;;;;;;;23.68;52.57;99886.19;5030058;28;20219;-63
2022/06/20 03:46:36;;;;;;;11.77;3.20;;;;;;;23.63;52.41;99898.59;5032226;28;20212;-63
2022/06/20 03:49:09;;;;;;;11.40;2.77;;;;;;;23.50;52.56;99907.03;5030897;28;20203;-64
2022/06/20 03:51:41;;;;;;;9.73;2.80;;;;;;;23.46;52.63;99919.41;5028352;28;20765;-66
2022/06/20 03:54:15;;;;;;;9.53;3.00;;;;;;;23.51;52.86;99924.91;5021509;28;20266;-62
2022/06/20 03:56:53;;;;;;;11.73;3.13;;;;;;;23.54;52.46;99919.03;5029793;28;20220;-62
2022/06/20 03:59:26;;;;;;;10.77;3.23;;;;;;;23.56;52.78;99905.25;5030502;28;20699;-62
2022/06/20 04:02:02;;;;;;;11.10;3.10;;;;;;;23.58;52.62;99903.91;5026679;28;20292;-61
2022/06/20 04:04:32;;;;;;;8.83;3.40;;;;;;;23.57;52.72;99913.09;5029894;28;20212;-64
2022/06/20 04:07:03;;;;;;;11.83;3.27;;;;;;;23.65;52.80;99919.19;5029869;28;20295;-63
2022/06/20 04:12:28;;;;;;;9.73;3.63;;;;;;;23.62;52.71;99909.66;5027906;28;20225;-62
2022/06/20 04:15:00;;;;;;;12.97;3.33;;;;;;;23.65;52.96;99919.19;5030853;28;20292;-63
2022/06/20 04:20:32;;;;;;;12.68;4.03;;;;;;;23.64;53.24;99894.00;5022935;28;20197;-62
2022/06/20 04:23:04;;;;;;;11.77;3.28;;;;;;;23.52;53.72;99896.78;5029037;28;20216;-63
2022/06/20 04:25:38;;;;;;;12.20;3.33;;;;;;;23.53;53.59;99898.44;5028968;28;20244;-63
2022/06/20 04:28:13;;;;;;;12.27;3.08;;;;;;;23.54;53.28;99891.97;5029617;28;20581;-63
2022/06/20 04:30:47;;;;;;;11.20;3.15;;;;;;;23.58;53.10;99887.66;5029860;28;20655;-64
2022/06/20 04:33:20;;;;;;;11.75;3.20;;;;;;;23.61;53.14;99881.78;5029221;28;20240;-63
2022/06/20 04:36:06;;;;;;;13.47;3.37;;;;;;;23.60;52.93;99896.38;5022704;28;20271;-63
2022/06/20 04:38:42;;;;;;;16.13;3.30;;;;;;;23.61;53.29;99906.13;5029307;28;20655;-63
2022/06/20 04:41:14;;;;;;;14.30;3.45;;;;;;;23.61;53.32;99898.03;5033294;28;20239;-63
2022/06/20 04:43:48;;;;;;;11.75;2.95;;;;;;;23.56;53.51;99905.25;5033109;28;20215;-63
2022/06/20 04:46:22;;;;;;;16.63;2.90;;;;;;;23.57;53.44;99923.13;5033240;28;20197;-62
2022/06/20 04:48:53;;;;;;;10.38;3.40;;;;;;;23.58;53.39;99930.97;5034107;28;20220;-61
2022/06/20 04:51:27;;;;;;;12.25;3.38;;;;;;;23.60;53.23;99928.84;5031202;28;20226;-61
2022/06/20 04:53:55;;;;;;;11.73;3.17;;;;;;;23.63;53.12;99950.03;5031847;28;20304;-61
2022/06/20 04:56:26;;;;;;;11.20;2.45;;;;;;;23.68;53.29;99976.34;5033522;28;20284;-61
2022/06/20 04:58:58;;;;;;;8.75;2.45;;;;;;;23.63;53.42;99985.19;5026026;28;20209;-62
2022/06/20 05:01:30;;;;;;;14.80;3.63;;;;;;;23.59;53.36;99997.56;5033443;28;20288;-63
2022/06/20 05:04:18;;;;;;;15.07;2.88;;;;;;;23.56;53.62;99998.06;5032622;28;20212;-62
2022/06/20 05:06:46;;;;;;;10.93;2.88;;;;;;;23.60;nan;100003.81;5032690;28;20220;-63
2022/06/20 05:09:20;;;;;;;9.17;2.87;;;;;;;23.63;53.42;99993.31;5033620;28;20697;-62
2022/06/20 05:11:52;;;;;;;12.17;3.33;;;;;;;23.65;53.48;99990.38;5033319;28;20611;-63
2022/06/20 05:14:24;;;;;;;8.40;2.70;;;;;;;23.67;53.17;99990.94;5032142;28;20392;-62
2022/06/20 05:17:00;;;;;;;11.23;3.20;;;;;;;23.67;53.41;99988.22;5019666;28;20555;-63
2022/06/20 05:19:33;;;;;;;7.88;3.08;;;;;;;23.72;53.03;99990.22;5033142;28;20576;-62
2022/06/20 05:22:04;;;;;;;12.88;2.92;;;;;;;23.72;52.86;99990.22;5032975;28;20287;-62
2022/06/20 05:24:37;;;;;;;14.60;3.00;;;;;;;23.72;52.77;99992.91;5032579;28;20813;-63
2022/06/20 05:27:11;;;;;;;11.47;2.80;;;;;;;23.74;52.58;99999.72;5033215;28;20240;-63
2022/06/20 05:29:42;;;;;;;9.33;3.13;;;;;;;23.76;52.49;100000.28;5033261;28;20513;-62
2022/06/20 05:32:16;;;;;;;11.40;3.03;;;;;;;23.79;52.57;100017.94;5032398;28;20235;-64
2022/06/20 05:34:51;;;;;;;15.23;3.05;;;;;;;23.81;52.30;100027.47;5031142;28;20300;-62
2022/06/20 05:37:30;;;;;;;14.00;3.23;;;;;;;23.82;52.19;100033.69;5032337;28;20219;-63
2022/06/20 05:40:03;;;;;;;8.55;2.50;;;;;;;23.82;52.45;100039.94;5032192;28;20595;-63
2022/06/20 05:42:31;;;;;;;8.38;3.10;;;;;;;23.83;52.65;100038.88;5031794;28;20197;-63
2022/06/20 05:44:59;;;;;;;12.73;2.85;;;;;;;23.82;52.26;100028.28;5023204;28;20218;-63
2022/06/20 05:47:31;;;;;;;10.63;3.22;;;;;;;23.80;52.04;100042.06;5034806;28;20239;-61
2022/06/20 05:50:06;;;;;;;9.23;2.65;;;;;;;23.78;52.01;100036.06;5035009;28;20217;-63
2022/06/20 05:52:35;;;;;;;13.65;3.63;;;;;;;23.75;52.03;100033.81;5023580;28;20588;-62
2022/06/20 05:55:09;;;;;;;19.35;3.47;;;;;;;23.71;52.36;100057.06;5031747;28;20274;-63
2022/06/20 05:57:40;;;;;;;8.07;2.53;;;;;;;23.70;52.47;100070.84;5032324;28;20316;-63
2022/06/20 06:00:17;;;;;;;15.47;3.50;;;;;;;23.69;52.40;100017.75;5031748;28;20292;-62
2022/06/20 06:02:48;;;;;;;10.90;2.70;;;;;;;23.58;53.00;100020.28;5031233;28;20433;-62
2022/06/20 06:05:22;;;;;;;14.27;3.27;;;;;;;23.59;53.23;100095.00;5031946;28;20205;-62
2022/06/20 06:07:58;;;;;;;17.07;3.20;;;;;;;23.63;53.07;100166.53;5032240;28;20643;-62
2022/06/20 06:10:35;;;;;;;15.37;3.00;;;;;;;23.66;53.05;100111.09;5032008;28;20650;-63
2022/06/20 06:13:13;;;;;;;12.07;2.87;;;;;;;23.68;54.03;100089.19;5031970;28;20582;-62
2022/06/20 06:16:46;;;;;;;20.27;4.50;;;;;;;23.63;58.00;100100.75;5031950;28;20834;-62
2022/06/20 06:18:42;;;;;;;16.77;3.80;;;;;;;23.31;65.01;100054.38;5028670;28;20227;-62
2022/06/20 06:21:11;;;;;;;17.57;4.17;;;;;;;23.20;66.04;100039.03;5024191;28;20208;-61
2022/06/20 06:23:40;;;;;;;13.85;4.28;;;;;;;23.05;69.80;100011.66;5030214;28;20295;-62
2022/06/20 06:26:10;;;;;;;14.90;4.07;;;;;;;22.78;71.55;100011.44;5031020;28;20205;-62
2022/06/20 06:28:40;;;;;;;15.60;4.50;;;;;;;22.62;72.02;100023.75;5032948;28;20246;-62
2022/06/20 06:31:15;;;;;;;17.60;4.70;;;;;;;22.63;72.21;100046.19;5030560;28;20631;-62
2022/06/20 06:33:49;;;;;;;10.30;4.17;;;;;;;22.67;72.20;100053.59;5030052;28;20228;-63
2022/06/20 06:36:25;;;;;;;15.20;4.37;;;;;;;22.71;71.56;100081.78;5031193;28;20200;-62
2022/06/20 06:38:57;;;;;;;12.10;3.97;;;;;;;22.75;71.91;100085.69;5026782;28;20344;-62
2022/06/20 06:41:30;;;;;;;15.07;4.67;;;;;;;22.67;74.88;100086.03;5030802;28;20213;-62
2022/06/20 06:44:00;;;;;;;16.17;4.73;;;;;;;22.66;77.46;100099.75;5030118;28;20296;-62
2022/06/20 06:46:34;;;;;;;12.97;4.50;;;;;;;22.70;75.04;100090.94;5031008;28;20208;-62
2022/06/20 06:49:28;;;;;;;11.77;4.27;;;;;;;22.76;73.31;100095.44;5030324;28;20219;-62
2022/06/20 06:52:03;;;;;;;10.00;4.27;;;;;;;22.81;73.99;100084.72;5023669;28;20316;-62
2022/06/20 06:54:48;;;;;;;12.60;4.23;;;;;;;22.83;74.64;100084.50;5024806;28;20728;-61
2022/06/20 06:57:22;;;;;;;10.43;3.90;;;;;;;22.86;73.41;100074.03;5030403;28;20228;-62
2022/06/20 06:59:55;;;;;;;10.53;3.83;;;;;;;22.93;72.60;100059.56;5030368;28;20263;-63
2022/06/20 07:02:26;;;;;;;9.57;4.37;;;;;;;22.92;73.76;100082.25;5029426;28;20555;-63
2022/06/20 07:05:00;;;;;;;10.53;4.67;;;;;;;22.85;76.21;100085.91;5030279;28;20721;-63
2022/06/20 07:07:35;;;;;;;14.27;4.80;;;;;;;22.81;78.33;100073.91;5030134;28;20201;-63
2022/06/20 07:10:04;;;;;;;16.33;5.03;;;;;;;22.69;80.02;100067.66;5030237;28;20218;-63
2022/06/20 07:12:37;;;;;;;11.40;4.47;;;;;;;22.73;80.91;100071.56;5029783;28;20598;-62
2022/06/20 07:15:09;;;;;;;11.97;3.83;;;;;;;22.72;79.93;100069.09;5030028;28;20245;-62
2022/06/20 07:17:41;;;;;;;10.53;3.63;;;;;;;22.67;76.38;100087.91;5030043;28;20215;-62
2022/06/20 07:20:11;;;;;;;9.83;4.00;;;;;;;22.64;74.36;100100.00;5030319;28;20961;-62
2022/06/20 07:22:43;;;;;;;11.50;4.07;;;;;;;22.69;71.61;100058.75;5029361;28;20239;-62
2022/06/20 07:25:17;;;;;;;11.17;4.13;;;;;;;22.61;76.18;100032.91;5029516;28;20300;-62
2022/06/20 07:27:51;;;;;;;10.87;3.63;;;;;;;22.60;74.93;100062.88;5026880;28;20243;-61
2022/06/20 07:30:24;;;;;;;11.70;3.97;;;;;;;22.64;71.72;100085.66;5030080;28;20711;-63
2022/06/20 07:32:57;;;;;;;16.37;4.73;;;;;;;22.68;74.15;100103.88;5029109;28;20220;-63
2022/06/20 07:35:31;;;;;;;11.27;4.17;;;;;;;22.64;73.90;100113.50;5030112;28;20604;-62
2022/06/20 07:38:04;;;;;;;14.63;3.97;;;;;;;22.67;74.01;100107.63;5029940;28;20713;-63
2022/06/20 07:40:37;;;;;;;12.33;4.70;;;;;;;22.65;72.63;100125.97;5026499;28;20287;-63
2022/06/20 07:43:12;;;;;;;7.07;3.50;;;;;;;22.57;73.83;100098.47;5029303;28;20650;-62
2022/06/20 07:45:43;;;;;;;10.90;4.33;;;;;;;22.42;76.10;100096.25;5029980;28;20208;-62
2022/06/20 07:48:17;;;;;;;12.50;4.67;;;;;;;22.37;77.68;100102.34;5029866;28;20209;-62
2022/06/20 07:50:49;;;;;;;10.77;3.77;;;;;;;22.24;79.71;100102.56;5024350;28;20243;-62
2022/06/20 07:53:25;;;;;;;9.90;3.90;;;;;;;22.18;75.68;100105.38;5028848;28;20224;-61
2022/06/20 07:55:59;;;;;;;9.30;4.07;;;;;;;22.18;77.24;100097.25;5031781;28;20326;-61
2022/06/20 07:58:31;;;;;;;12.23;4.43;;;;;;;22.15;79.72;100101.28;5029266;28;20239;-61
2022/06/20 08:01:04;;;;;;;9.73;4.23;;;;;;;22.13;79.65;100093.41;5029434;28;20251;-62
2022/06/20 08:03:37;;;;;;;9.50;4.80;;;;;;;22.17;80.91;100082.09;5029030;28;20658;-62
2022/06/20 08:06:21;;;;;;;11.90;4.63;;;;;;;22.22;79.28;100083.06;5029798;28;20217;-63
2022/06/20 08:08:57;;;;;;;11.00;4.53;;;;;;;22.28;78.94;100081.31;5029757;28;20213;-62
2022/06/20 08:11:43;;;;;;;13.67;4.97;;;;;;;22.31;78.38;100080.84;5020417;28;20205;-62
2022/06/20 08:14:22;;;;;;;10.60;4.17;;;;;;;22.36;79.76;100070.16;5029482;28;20227;-62
2022/06/20 08:16:53;;;;;;;14.87;5.57;;;;;;;22.32;77.63;100071.69;5034183;28;20576;-64
2022/06/20 08:19:22;;;;;;;16.67;5.93;;;;;;;22.30;79.77;100073.81;5033702;28;20239;-65
2022/06/20 08:21:57;;;;;;;14.40;5.20;;;;;;;22.28;77.76;100075.91;5027681;28;20223;-62
2022/06/20 08:24:31;;;;;;;12.03;5.23;;;;;;;22.37;76.67;100079.91;5029051;28;20216;-64
2022/06/20 08:27:05;;;;;;;10.30;5.13;;;;;;;22.48;74.81;100084.50;5030740;28;20622;-64
2022/06/20 08:29:38;;;;;;;10.30;5.27;;;;;;;22.61;77.46;100086.94;5031837;28;20240;-63
2022/06/20 08:32:19;;;;;;;17.33;5.47;;;;;;;22.77;75.62;100097.09;5032562;28;20217;-63
2022/06/20 08:34:54;;;;;;;12.83;5.90;;;;;;;22.92;74.22;100095.78;5032824;28;20220;-63
2022/06/20 08:37:29;;;;;;;13.97;5.57;;;;;;;23.08;73.18;100092.31;5032717;28;20766;-62
2022/06/20 08:40:12;;;;;;;13.20;5.40;;;;;;;23.35;72.97;100098.84;5032920;28;20318;-62
2022/06/20 08:43:07;;;;;;;14.53;5.90;;;;;;;23.58;72.64;100112.28;5032187;28;20303;-62
2022/06/20 08:46:12;;;;;;;16.33;5.47;;;;;;;23.74;71.70;100126.13;5032876;28;20212;-62
2022/06/20 08:49:10;;;;;;;12.87;4.50;;;;;;;23.85;72.19;100130.66;5033000;28;20672;-62
2022/06/20 08:52:08;;;;;;;11.27;4.03;;;;;;;23.98;67.73;100135.78;5030756;28;20601;-63
2022/06/20 08:55:14;;;;;;;8.97;3.80;;;;;;;24.02;66.18;100136.91;5028300;28;20275;-63
2022/06/20 08:57:52;;;;;;;11.88;4.15;;;;;;;23.97;64.54;100158.50;5030775;28;20215;-62
2022/06/20 09:00:44;;;;;;;11.40;4.43;;;;;;;23.92;67.27;100185.50;5032756;28;20205;-63
2022/06/20 09:03:36;;;;;;;9.77;3.70;;;;;;;23.88;66.11;100197.88;5032113;28;20828;-62
2022/06/20 09:06:28;;;;;;;8.55;3.50;;;;;;;23.89;65.48;100213.88;5016386;28;20220;-62
2022/06/20 09:09:18;;;;;;;10.10;3.70;;;;;;;23.87;65.50;100224.13;5032739;28;20213;-63
2022/06/20 09:12:04;;;;;;;11.32;3.92;;;;;;;23.76;67.14;100234.97;5032164;28;20219;-64
2022/06/20 09:14:55;;;;;;;8.67;3.47;;;;;;;23.70;67.52;100249.47;5023815;28;20309;-64
2022/06/20 09:17:32;;;;;;;9.13;3.43;;;;;;;23.58;66.26;100257.63;5032731;28;20777;-65
2022/06/20 09:20:16;;;;;;;7.70;3.23;;;;;;;23.48;65.21;100266.34;5030864;28;20223;-63
2022/06/20 09:22:58;;;;;;;6.43;2.57;;;;;;;23.40;65.97;100277.50;5031641;28;20274;-64
2022/06/20 09:25:36;;;;;;;5.10;2.67;;;;;;;23.33;66.61;100284.09;5032083;28;20214;-62
2022/06/20 09:28:23;;;;;;;3.90;2.03;;;;;;;23.25;66.72;100282.56;5032252;28;20234;-63
2022/06/20 09:30:59;;;;;;;6.43;2.17;;;;;;;23.26;68.67;100274.22;5032256;28;20640;-63
2022/06/20 09:33:44;;;;;;;5.07;1.87;;;;;;;23.40;66.95;100282.91;5031637;28;20224;-62
2022/06/20 09:36:54;;;;;;;3.45;2.08;;;;;;;23.54;65.05;100278.94;5024869;28;20291;-63
2022/06/20 09:39:34;;;;;;;5.23;2.00;;;;;;;23.69;63.53;100293.84;5032259;28;20688;-66
2022/06/20 09:42:11;;;;;;;3.72;2.00;;;;;;;23.77;62.39;100296.19;5032386;28;20211;-65
2022/06/20 09:44:50;;;;;;;5.23;1.97;;;;;;;23.71;63.69;100299.84;5031722;28;20295;-64
2022/06/20 09:47:29;;;;;;;4.53;2.17;;;;;;;23.56;64.85;100303.88;5029646;28;20247;-61
2022/06/20 09:50:17;;;;;;;2.90;1.77;;;;;;;23.51;62.47;100309.16;5029825;28;20203;-62
2022/06/20 09:52:57;;;;;;;2.63;1.92;;;;;;;23.46;63.76;100311.75;5027997;28;20303;-63
2022/06/20 09:55:32;;;;;;;3.73;1.73;;;;;;;23.33;63.18;100321.97;5024664;28;20241;-62
2022/06/20 09:58:09;;;;;;;2.90;1.60;;;;;;;23.22;63.26;100320.91;5011493;28;20236;-63
2022/06/20 10:00:45;;;;;;;4.00;1.55;;;;;;;23.20;63.16;100323.88;5003691;28;20202;-64
2022/06/20 10:03:20;;;;;;;5.27;1.70;;;;;;;23.15;61.92;100331.00;5007871;28;20209;-62
2022/06/20 10:05:53;;;;;;;4.65;1.63;;;;;;;23.08;61.93;100320.31;5010900;28;20662;-63
2022/06/20 10:08:31;;;;;;;2.50;1.30;;;;;;;23.11;61.88;100319.03;5011512;28;20279;-63
2022/06/20 10:11:05;;;;;;;2.43;1.57;;;;;;;23.12;62.23;100318.81;5011456;28;20280;-64
2022/06/20 10:13:41;;;;;;;2.33;1.40;;;;;;;23.15;62.36;100306.66;5000778;28;20220;-63
2022/06/20 10:16:18;;;;;;;2.85;1.75;;;;;;;23.17;60.94;100305.38;5011013;28;20205;-63
2022/06/20 10:18:51;;;;;;;2.00;1.30;;;;;;;23.17;60.29;100304.56;5018148;28;20201;-64
2022/06/20 10:21:26;;;;;;;3.37;1.73;;;;;;;23.18;59.71;100308.91;5011799;28;20264;-64
2022/06/20 10:24:15;;;;;;;7.75;1.45;;;;;;;23.21;60.50;100313.88;5025045;28;20205;-63
2022/06/20 10:27:16;;;;;;;2.23;1.20;;;;;;;23.26;59.28;100328.31;5010683;28;20209;-64
2022/06/20 10:30:01;;;;;;;2.72;1.27;;;;;;;23.34;59.22;100332.56;4998774;28;20664;-65
2022/06/20 10:32:47;;;;;;;2.43;1.40;;;;;;;23.36;58.78;100335.88;5010808;28;20205;-63
2022/06/20 10:35:18;;;;;;;2.60;1.17;;;;;;;23.32;58.86;100336.53;5011403;28;20241;-64
2022/06/20 10:37:58;;;;;;;3.07;1.13;;;;;;;23.33;59.06;100333.63;5011020;28;20711;-64
2022/06/20 10:40:34;;;;;;;2.65;1.58;;;;;;;23.31;58.22;100333.03;5011224;28;20212;-64
2022/06/20 10:43:08;;;;;;;2.17;1.30;;;;;;;23.29;57.83;100329.75;5008354;28;20245;-63
2022/06/20 10:45:46;;;;;;;4.78;1.42;;;;;;;23.32;56.71;100331.13;5004382;28;20209;-63
2022/06/20 10:48:47;;;;;;;3.15;1.50;;;;;;;23.33;57.58;100339.03;5010960;28;20206;-63
2022/06/20 10:51:27;;;;;;;2.30;1.50;;;;;;;23.29;57.05;100345.97;5008653;28;20212;-64
2022/06/20 10:54:07;;;;;;;2.47;1.77;;;;;;;23.27;55.64;100340.78;5000314;28;20213;-64
2022/06/20 10:56:41;;;;;;;4.90;1.80;;;;;;;23.25;55.54;100331.25;5010989;28;20209;-62
2022/06/20 10:59:26;;;;;;;2.67;1.97;;;;;;;23.31;55.76;100330.31;5001831;28;20213;-63
2022/06/20 11:02:04;;;;;;;2.37;1.77;;;;;;;23.34;54.96;100343.38;5010143;28;20232;-63
2022/06/20 11:04:48;;;;;;;2.42;1.90;;;;;;;23.47;55.78;100339.63;5011440;28;20677;-62
2022/06/20 11:07:26;;;;;;;3.78;2.50;;;;;;;23.71;55.07;100352.13;5011406;28;20208;-62
2022/06/20 11:10:07;;;;;;;8.03;2.30;;;;;;;24.04;55.01;100345.22;5011595;28;20834;-63
2022/06/20 11:12:48;;;;;;;5.22;2.75;;;;;;;24.37;54.56;100351.63;5010489;28;20217;-63
2022/06/20 11:15:23;;;;;;;2.95;2.15;;;;;;;24.49;54.45;100365.16;5004523;28;20279;-62
2022/06/20 11:18:01;;;;;;;5.10;2.47;;;;;;;24.60;52.89;100353.44;5011059;28;20271;-63
2022/06/20 11:20:37;;;;;;;3.38;2.47;;;;;;;24.67;51.67;100359.53;5011267;28;20278;-64
2022/06/20 11:23:14;;;;;;;2.60;2.10;;;;;;;24.56;51.97;100373.13;5010562;28;20213;-63
2022/06/20 11:25:53;;;;;;;2.97;2.10;;;;;;;24.36;52.25;100387.13;5010373;28;20241;-63
2022/06/20 11:28:44;;;;;;;5.03;1.90;;;;;;;24.12;52.55;100402.56;5010443;28;20289;-63
2022/06/20 11:31:17;;;;;;;3.47;2.42;;;;;;;23.87;52.67;100402.00;5008593;28;20304;-63
2022/06/20 11:34:06;;;;;;;5.10;2.03;;;;;;;23.65;53.51;100412.63;5010036;28;20689;-63
2022/06/20 11:36:49;;;;;;;6.65;2.40;;;;;;;23.48;53.63;100425.19;5010951;28;20300;-62
2022/06/20 11:39:29;;;;;;;3.67;2.42;;;;;;;23.31;54.64;100425.00;5010688;28;20205;-63
2022/06/20 11:42:01;;;;;;;3.60;2.40;;;;;;;23.18;54.93;100417.09;5010973;28;20224;-63
2022/06/20 11:44:59;;;;;;;2.92;2.33;;;;;;;23.07;54.53;100415.19;5008033;28;20201;-63
2022/06/20 11:47:55;;;;;;;4.70;2.30;;;;;;;23.04;55.04;100429.19;5006977;28;20214;-62
2022/06/20 11:50:32;;;;;;;4.35;2.53;;;;;;;23.09;54.83;100429.31;5014541;28;20241;-62
2022/06/20 11:53:15;;;;;;;4.15;2.35;;;;;;;23.16;54.58;100430.84;5013665;28;20561;-63
2022/06/20 11:55:49;;;;;;;4.28;2.30;;;;;;;23.18;54.17;100438.75;5014599;28;20271;-63
2022/06/20 11:58:22;;;;;;;4.60;3.17;;;;;;;23.15;54.18;100428.38;5014121;28;20289;-62
2022/06/20 12:00:54;;;;;;;3.53;2.80;;;;;;;23.11;54.45;100428.03;5014613;28;20296;-62
2022/06/20 12:03:31;;;;;;;6.57;3.07;;;;;;;23.12;54.35;100426.16;5014158;28;20216;-63
2022/06/20 12:06:06;;;;;;;7.50;3.17;;;;;;;23.24;55.30;100416.16;5014739;28;20209;-62
2022/06/20 12:08:44;;;;;;;4.78;2.70;;;;;;;23.35;55.36;100418.09;5014018;28;20669;-63
2022/06/20 12:11:19;;;;;;;4.30;2.65;;;;;;;23.41;55.23;100416.31;5006042;28;20288;-62
2022/06/20 12:14:02;;;;;;;5.67;2.50;;;;;;;23.41;55.38;100421.72;5014102;28;20616;-62